Time;durP1;ratioP1;P1;durP2;ratioP2;P2;SDS_P1;SDS_P2;PMS_P1;PMS_P2;Temp;Humidity;BMP_temperature;BMP_pressure;BME280_temperature;BME280_humidity;BME280_pressure;Samples;Min_cycle;Max_cycle;Signal;HPM_P1;HPM_P2
2023/05/05 00:02:10;;;;;;;13.80;7.72;;;;;;;11.15;94.13;99162.41;5079145;28;20043;-95
2023/05/05 00:04:36;;;;;;;12.43;7.28;;;;;;;11.00;94.32;99144.13;5070320;28;20130;-94
2023/05/05 00:07:01;;;;;;;12.98;7.68;;;;;;;11.09;93.94;99157.22;5071555;28;20404;-94
2023/05/05 00:09:29;;;;;;;12.15;7.45;;;;;;;10.83;94.13;99121.44;5078653;28;20036;-94
2023/05/05 00:11:55;;;;;;;10.43;7.28;;;;;;;10.97;95.17;99138.84;5073102;28;20044;-95
2023/05/05 00:14:21;;;;;;;11.77;7.90;;;;;;;10.98;96.21;99145.94;5080406;28;20553;-95
2023/05/05 00:16:46;;;;;;;11.52;7.07;;;;;;;10.81;95.71;99115.25;5068987;28;20071;-94
2023/05/05 00:19:12;;;;;;;11.35;7.13;;;;;;;10.92;96.22;99136.31;5072886;28;20040;-93
2023/05/05 00:21:38;;;;;;;10.98;7.00;;;;;;;11.20;94.81;99165.81;5065996;28;20041;-94
2023/05/05 00:24:04;;;;;;;9.07;7.03;;;;;;;11.02;94.19;99118.38;5065725;28;20068;-95
2023/05/05 00:26:32;;;;;;;10.10;6.72;;;;;;;11.20;93.72;99163.16;5070875;28;20040;-94
2023/05/05 00:28:58;;;;;;;11.20;7.18;;;;;;;11.04;94.15;99141.34;5067348;28;20428;-96
2023/05/05 00:31:24;;;;;;;8.68;6.28;;;;;;;11.13;94.49;99163.34;5067374;28;20086;-94
2023/05/05 00:33:50;;;;;;;10.60;6.32;;;;;;;11.05;95.11;99152.88;5067955;28;20044;-94
2023/05/05 00:36:15;;;;;;;9.43;6.55;;;;;;;10.99;95.52;99142.38;5072400;28;20056;-95
2023/05/05 00:38:41;;;;;;;9.60;6.40;;;;;;;11.05;95.93;99147.56;5089871;28;20036;-93
2023/05/05 00:41:07;;;;;;;10.13;6.72;;;;;;;10.93;96.01;99118.56;5073995;28;20079;-94
2023/05/05 00:43:35;;;;;;;9.73;6.47;;;;;;;11.14;94.64;99149.13;5065968;28;20494;-95
2023/05/05 00:46:12;;;;;;;10.25;6.68;;;;;;;11.19;95.06;99150.78;5079007;28;20044;-94
2023/05/05 00:48:39;;;;;;;11.82;6.38;;;;;;;10.94;95.03;99125.63;5091063;28;20055;-95
2023/05/05 00:51:08;;;;;;;9.65;6.45;;;;;;;10.81;95.39;99117.94;5066199;28;20043;-94
2023/05/05 00:53:34;;;;;;;9.13;6.28;;;;;;;10.93;95.85;99129.19;5069610;28;20047;-95
2023/05/05 00:56:00;;;;;;;9.20;6.32;;;;;;;10.82;96.61;99125.00;5074694;28;20064;-93
2023/05/05 00:58:27;;;;;;;11.15;6.10;;;;;;;10.90;97.15;99148.78;5074651;28;20044;-95
2023/05/05 01:00:55;;;;;;;8.95;6.20;;;;;;;10.73;97.45;99141.16;5067924;28;20068;-94
2023/05/05 01:03:21;;;;;;;8.82;6.03;;;;;;;10.44;98.78;99110.75;5076300;28;20505;-94
2023/05/05 01:05:54;;;;;;;9.00;5.95;;;;;;;10.40;99.41;99125.00;5071447;28;20127;-94
2023/05/05 01:08:35;;;;;;;8.27;5.82;;;;;;;10.40;99.63;99127.66;5069616;28;20055;-94
2023/05/05 01:11:07;;;;;;;9.13;5.85;;;;;;;10.25;99.07;99119.97;5065915;28;20120;-95
2023/05/05 01:13:41;;;;;;;9.50;6.32;;;;;;;10.36;98.89;99136.59;5065406;28;20102;-95
2023/05/05 01:16:17;;;;;;;10.38;7.10;;;;;;;10.60;98.35;99135.22;5058596;28;20494;-94
2023/05/05 01:18:48;;;;;;;10.15;6.70;;;;;;;10.60;97.53;99107.75;5060080;28;20123;-94
2023/05/05 01:21:19;;;;;;;10.00;7.00;;;;;;;10.61;97.44;99107.72;5060605;28;20053;-94
2023/05/05 01:24:18;;;;;;;9.82;6.68;;;;;;;10.60;97.87;99110.41;5074108;28;20489;-95
2023/05/05 01:26:58;;;;;;;9.73;6.90;;;;;;;10.74;98.27;99129.63;5066816;28;20052;-94
2023/05/05 01:29:40;;;;;;;9.25;6.70;;;;;;;10.59;97.83;99093.59;5069121;28;20037;-94
2023/05/05 01:32:09;;;;;;;14.05;7.22;;;;;;;10.75;96.52;99101.22;5074261;28;20040;-94
2023/05/05 01:34:40;;;;;;;10.90;7.38;;;;;;;10.93;96.15;99126.53;5068431;28;20051;-95
2023/05/05 01:37:11;;;;;;;8.70;5.90;;;;;;;10.55;96.57;99072.44;5077733;28;20048;-96
2023/05/05 01:39:40;;;;;;;9.73;6.53;;;;;;;10.57;96.93;99078.59;5071194;28;20032;-95
2023/05/05 01:42:12;;;;;;;9.32;7.03;;;;;;;10.63;97.38;99107.72;5071687;28;20121;-93
2023/05/05 01:44:41;;;;;;;11.13;6.82;;;;;;;10.40;97.52;99069.19;5067153;28;20037;-94
2023/05/05 01:47:11;;;;;;;9.87;6.87;;;;;;;10.64;97.14;99104.13;5058951;28;20041;-93
2023/05/05 01:49:37;;;;;;;8.98;6.57;;;;;;;10.56;97.35;99111.38;5074270;28;20460;-92
2023/05/05 01:52:04;;;;;;;10.13;6.97;;;;;;;10.41;97.53;99094.88;5074762;28;20453;-94
2023/05/05 01:54:33;;;;;;;10.55;7.05;;;;;;;10.24;98.48;99108.47;5077459;28;20501;-95
2023/05/05 01:57:02;;;;;;;9.00;6.30;;;;;;;10.19;99.15;99110.38;5085102;28;20064;-94
2023/05/05 01:59:28;;;;;;;10.75;6.53;;;;;;;10.27;99.12;99129.66;5070534;28;20033;-94
2023/05/05 02:01:56;;;;;;;8.93;6.53;;;;;;;10.06;99.11;99093.78;5060552;28;20615;-95
2023/05/05 02:04:26;;;;;;;9.60;6.63;;;;;;;10.31;98.14;99117.22;5073448;28;20036;-95
2023/05/05 02:06:53;;;;;;;8.57;6.35;;;;;;;10.42;97.87;99135.63;5077626;28;20048;-94
2023/05/05 02:09:27;;;;;;;10.50;7.40;;;;;;;10.25;97.86;99109.34;5068813;28;20068;-95
2023/05/05 02:11:56;;;;;;;9.02;6.75;;;;;;;10.13;97.93;99096.28;5076675;28;20044;-94
2023/05/05 02:14:24;;;;;;;9.27;6.18;;;;;;;10.34;97.03;99119.81;5069635;28;20045;-95
2023/05/05 02:16:52;;;;;;;10.60;6.43;;;;;;;10.38;97.06;99117.97;5066893;28;20047;-95
2023/05/05 02:19:20;;;;;;;9.23;6.07;;;;;;;10.39;96.60;99120.63;5064351;28;20551;-95
2023/05/05 02:21:53;;;;;;;9.97;6.40;;;;;;;10.18;96.57;99086.47;5073753;28;20465;-95
2023/05/05 02:24:19;;;;;;;8.30;6.38;;;;;;;10.24;95.90;99086.34;5070089;28;20098;-93
2023/05/05 02:26:49;;;;;;;8.63;6.22;;;;;;;10.38;95.20;99096.72;5076731;28;20444;-94
2023/05/05 02:29:19;;;;;;;9.70;6.22;;;;;;;10.36;95.49;99107.38;5059382;28;20037;-93
2023/05/05 02:31:49;;;;;;;8.93;6.10;;;;;;;10.22;94.91;99081.06;5074423;28;20139;-94
2023/05/05 02:34:21;;;;;;;7.80;6.30;;;;;;;10.16;95.27;99070.53;5069708;28;20066;-94
2023/05/05 02:36:52;;;;;;;9.93;6.88;;;;;;;10.10;96.80;99097.22;5048605;28;20100;-94
2023/05/05 02:39:24;;;;;;;8.57;6.03;;;;;;;9.96;97.25;99078.91;5048208;28;20037;-95
2023/05/05 02:41:54;;;;;;;9.15;5.93;;;;;;;9.96;97.03;99075.41;5050689;28;20040;-94
2023/05/05 02:44:22;;;;;;;8.57;6.38;;;;;;;9.97;97.18;99085.97;5053904;28;20044;-94
2023/05/05 02:46:48;;;;;;;9.10;6.00;;;;;;;9.92;96.97;99079.00;5049599;28;20073;-93
2023/05/05 02:49:14;;;;;;;9.68;6.18;;;;;;;9.98;96.55;99073.59;5053095;28;20536;-95
2023/05/05 02:51:40;;;;;;;8.63;6.03;;;;;;;10.12;97.04;99107.84;5035931;28;20045;-95
2023/05/05 02:54:07;;;;;;;8.23;6.13;;;;;;;9.95;97.62;99092.22;5045481;28;20072;-95
2023/05/05 02:56:40;;;;;;;9.10;6.07;;;;;;;9.77;97.91;99083.69;5053462;28;20065;-94
2023/05/05 02:59:14;;;;;;;8.80;5.93;;;;;;;9.81;98.51;99114.63;5044025;28;20071;-94
2023/05/05 03:01:55;;;;;;;9.60;6.00;;;;;;;9.65;99.13;99091.91;5050052;28;20041;-93
2023/05/05 03:04:26;;;;;;;10.35;6.00;;;;;;;9.63;99.21;99107.00;5049037;28;20103;-94
2023/05/05 03:06:56;;;;;;;8.32;5.50;;;;;;;9.26;100.00;99067.81;5044571;28;20091;-95
2023/05/05 03:09:31;;;;;;;9.27;6.00;;;;;;;9.47;100.00;99117.00;5042151;28;20141;-94
2023/05/05 03:12:00;;;;;;;8.38;5.93;;;;;;;9.19;100.00;99063.50;5047791;28;20037;-95
2023/05/05 03:14:29;;;;;;;7.80;5.35;;;;;;;9.28;100.00;99070.44;5053312;28;20080;-96
2023/05/05 03:16:56;;;;;;;8.00;5.72;;;;;;;9.53;100.00;99085.03;5041582;28;20046;-93
2023/05/05 03:19:23;;;;;;;7.97;6.20;;;;;;;9.44;100.00;99066.63;5049593;28;20510;-95
2023/05/05 03:21:49;;;;;;;9.32;5.97;;;;;;;9.52;100.00;99085.94;5046213;28;20045;-94
2023/05/05 03:24:17;;;;;;;7.82;5.50;;;;;;;9.47;100.00;99087.78;5052075;28;20498;-93
2023/05/05 03:26:45;;;;;;;8.85;6.32;;;;;;;9.55;100.00;99098.28;5046015;28;20111;-95
2023/05/05 03:29:11;;;;;;;9.07;6.20;;;;;;;9.37;100.00;99078.25;5053270;28;20058;-95
2023/05/05 03:31:37;;;;;;;10.73;6.60;;;;;;;9.28;100.00;99067.78;5044029;28;20123;-94
2023/05/05 03:34:03;;;;;;;10.57;6.47;;;;;;;9.36;100.00;99082.66;5038988;28;20132;-93
2023/05/05 03:36:30;;;;;;;9.30;6.32;;;;;;;9.28;100.00;99079.25;5049314;28;20506;-94
2023/05/05 03:38:57;;;;;;;7.95;5.43;;;;;;;9.17;100.00;99079.47;5052562;28;20131;-93
2023/05/05 03:41:23;;;;;;;7.53;6.03;;;;;;;9.09;100.00;99075.19;5052828;28;20041;-95
2023/05/05 03:43:50;;;;;;;7.50;5.47;;;;;;;9.14;100.00;99095.41;5052511;28;20053;-94
2023/05/05 03:46:16;;;;;;;9.20;6.18;;;;;;;9.18;100.00;99102.44;5052512;28;20464;-94
2023/05/05 03:48:42;;;;;;;8.95;6.10;;;;;;;8.86;100.00;99055.19;5052756;28;20127;-94
2023/05/05 03:51:08;;;;;;;8.80;5.90;;;;;;;9.00;100.00;99084.13;5052784;28;20037;-95
2023/05/05 03:53:34;;;;;;;8.65;5.93;;;;;;;8.88;100.00;99068.44;5052759;28;20049;-94
2023/05/05 03:56:00;;;;;;;7.90;5.45;;;;;;;9.08;100.00;99100.81;5052743;28;20049;-93
2023/05/05 03:58:26;;;;;;;9.32;6.50;;;;;;;8.84;100.00;99071.13;5052745;28;20052;-93
2023/05/05 04:00:54;;;;;;;10.00;6.28;;;;;;;8.97;100.00;99098.31;5054209;28;20069;-94
2023/05/05 04:03:19;;;;;;;9.07;5.68;;;;;;;9.08;100.00;99119.38;5056361;28;20149;-93
2023/05/05 04:05:45;;;;;;;8.32;5.70;;;;;;;8.96;100.00;99096.59;5056234;28;20131;-94
2023/05/05 04:08:11;;;;;;;8.32;6.10;;;;;;;9.03;100.00;99100.88;5056098;28;20044;-92
2023/05/05 04:10:37;;;;;;;9.50;6.38;;;;;;;8.90;100.00;99077.25;5056015;28;20048;-94
2023/05/05 04:13:03;;;;;;;7.60;5.70;;;;;;;8.86;100.00;99070.22;5055944;28;20127;-93
2023/05/05 04:15:29;;;;;;;8.32;5.90;;;;;;;9.10;100.00;99112.28;5063622;28;20068;-93
2023/05/05 04:17:57;;;;;;;8.35;6.13;;;;;;;8.99;100.00;99090.34;5039049;28;20490;-93
2023/05/05 04:20:22;;;;;;;9.10;5.90;;;;;;;8.97;100.00;99070.94;5055895;28;20049;-94
2023/05/05 04:22:48;;;;;;;8.95;6.05;;;;;;;9.21;100.00;99112.97;5055736;28;20075;-94
2023/05/05 04:25:14;;;;;;;7.57;5.22;;;;;;;9.23;100.00;99112.97;5055672;28;20483;-93
2023/05/05 04:27:40;;;;;;;8.45;5.65;;;;;;;9.14;100.00;99105.16;5055572;28;20036;-93
2023/05/05 04:30:09;;;;;;;9.70;6.22;;;;;;;9.15;100.00;99104.25;5055548;28;20047;-94
2023/05/05 04:32:35;;;;;;;9.13;6.22;;;;;;;9.18;100.00;99113.03;5055636;28;20099;-95
2023/05/05 04:35:03;;;;;;;9.27;6.18;;;;;;;9.14;100.00;99108.69;5060552;28;20069;-92
2023/05/05 04:37:29;;;;;;;10.02;6.30;;;;;;;9.21;100.00;99117.41;5079060;28;20044;-93
2023/05/05 04:39:55;;;;;;;9.43;6.65;;;;;;;9.20;100.00;99121.84;5078820;28;20366;-93
2023/05/05 04:42:21;;;;;;;9.27;6.50;;;;;;;9.08;100.00;99092.84;5063851;28;20071;-92
2023/05/05 04:44:46;;;;;;;12.25;7.32;;;;;;;9.28;100.00;99120.84;5061065;28;20075;-93
2023/05/05 04:47:12;;;;;;;10.57;6.50;;;;;;;9.33;100.00;99121.66;5075387;28;20486;-93
2023/05/05 04:49:38;;;;;;;9.07;6.50;;;;;;;9.16;100.00;99096.28;5066807;28;20195;-94
2023/05/05 04:52:06;;;;;;;11.27;7.55;;;;;;;9.19;100.00;99090.91;5070505;28;20068;-93
2023/05/05 04:54:34;;;;;;;10.57;7.25;;;;;;;9.23;100.00;99089.94;5076389;28;20043;-92
2023/05/05 04:57:01;;;;;;;8.65;6.30;;;;;;;9.30;100.00;99096.03;5078974;28;20048;-92
2023/05/05 04:59:26;;;;;;;12.65;6.72;;;;;;;9.48;100.00;99121.41;5075946;28;20127;-93
2023/05/05 05:01:52;;;;;;;10.43;6.57;;;;;;;9.38;100.00;99098.56;5076084;28;20139;-93
2023/05/05 05:04:20;;;;;;;9.77;6.95;;;;;;;9.54;100.00;99123.97;5078451;28;20047;-92
2023/05/05 05:06:46;;;;;;;9.43;6.50;;;;;;;9.52;100.00;99119.56;5075110;28;20044;-91
2023/05/05 05:09:13;;;;;;;10.27;6.82;;;;;;;9.61;100.00;99117.63;5058430;28;20054;-94
2023/05/05 05:11:39;;;;;;;10.25;6.82;;;;;;;9.79;100.00;99099.63;5058242;28;20040;-92
2023/05/05 05:14:05;;;;;;;8.45;6.25;;;;;;;10.24;100.00;99136.84;5069690;28;20468;-94
2023/05/05 05:16:31;;;;;;;9.23;6.22;;;;;;;10.44;100.00;99097.44;5068331;28;20127;-92
2023/05/05 05:18:57;;;;;;;9.80;6.10;;;;;;;11.01;97.90;99119.25;5080538;28;20135;-92
2023/05/05 05:21:23;;;;;;;9.45;6.63;;;;;;;11.51;94.08;99133.13;5074847;28;20400;-92
2023/05/05 05:23:49;;;;;;;8.75;6.05;;;;;;;11.73;89.68;99114.81;5071259;28;20051;-94
2023/05/05 05:26:16;;;;;;;10.00;6.70;;;;;;;11.94;89.07;99092.06;5062449;28;20040;-93
2023/05/05 05:28:42;;;;;;;10.45;6.07;;;;;;;12.22;87.06;99100.19;5063056;28;20039;-93
2023/05/05 05:31:11;;;;;;;11.65;6.28;;;;;;;12.57;85.58;99108.06;5069945;28;20497;-95
2023/05/05 05:33:37;;;;;;;10.25;6.57;;;;;;;12.87;82.66;99138.31;5072874;28;20412;-93
2023/05/05 05:36:03;;;;;;;11.85;7.03;;;;;;;12.87;82.17;99104.47;5063568;28;20143;-95
2023/05/05 05:38:29;;;;;;;11.15;6.72;;;;;;;12.92;80.87;99104.31;5072283;28;20041;-95
2023/05/05 05:40:55;;;;;;;10.52;6.55;;;;;;;13.03;80.52;99110.19;5055892;28;20495;-94
2023/05/05 05:43:22;;;;;;;10.02;6.47;;;;;;;13.01;79.37;99104.06;5057156;28;20510;-95
2023/05/05 05:45:48;;;;;;;11.93;6.30;;;;;;;13.31;78.92;99130.72;5056489;28;20568;-96
2023/05/05 05:48:15;;;;;;;8.68;6.00;;;;;;;13.30;77.60;99118.31;5054010;28;20071;-94
2023/05/05 05:50:41;;;;;;;9.68;6.55;;;;;;;13.64;76.68;99134.09;5054018;28;20033;-94
2023/05/05 05:53:06;;;;;;;10.30;6.80;;;;;;;13.63;77.47;99132.31;5053743;28;20051;-94
2023/05/05 05:55:32;;;;;;;10.07;6.18;;;;;;;13.67;76.01;99117.06;5054184;28;20442;-95
2023/05/05 05:57:59;;;;;;;12.70;6.70;;;;;;;13.72;76.10;99126.66;5053786;28;20447;-95
2023/05/05 06:00:26;;;;;;;8.38;5.88;;;;;;;13.90;76.12;99124.28;5053919;28;20048;-94
2023/05/05 06:02:52;;;;;;;10.52;6.25;;;;;;;14.20;74.64;99154.41;5053618;28;20045;-95
2023/05/05 06:05:18;;;;;;;8.95;6.43;;;;;;;14.24;74.54;99133.78;5053658;28;20136;-95
2023/05/05 06:07:43;;;;;;;11.15;6.60;;;;;;;13.71;75.74;99118.72;5053727;28;20372;-93
2023/05/05 06:10:10;;;;;;;9.48;5.75;;;;;;;13.80;76.56;99109.50;5054294;28;20501;-94
2023/05/05 06:12:35;;;;;;;9.40;6.25;;;;;;;14.14;76.46;99115.41;5053600;28;20044;-95
2023/05/05 06:15:01;;;;;;;7.68;6.00;;;;;;;14.52;74.59;99139.00;5054021;28;20118;-94
2023/05/05 06:17:29;;;;;;;9.82;6.97;;;;;;;14.54;73.81;99095.19;5053803;28;20095;-93
2023/05/05 06:19:55;;;;;;;11.18;6.63;;;;;;;14.84;73.00;99108.38;5053512;28;20490;-95
2023/05/05 06:22:21;;;;;;;10.77;6.30;;;;;;;14.49;74.19;99109.69;5053091;28;20048;-95
2023/05/05 06:24:46;;;;;;;10.35;6.20;;;;;;;14.78;72.89;99103.25;5053367;28;20047;-94
2023/05/05 06:27:12;;;;;;;7.90;6.35;;;;;;;15.21;71.90;99139.03;5053780;28;20044;-95
2023/05/05 06:29:38;;;;;;;12.68;6.65;;;;;;;15.14;71.92;99105.41;5053092;28;20153;-95
2023/05/05 06:32:07;;;;;;;8.55;6.07;;;;;;;15.44;71.04;99127.41;5053150;28;20051;-93
2023/05/05 06:34:34;;;;;;;10.95;6.97;;;;;;;15.49;70.43;99095.06;5052904;28;20043;-93
2023/05/05 06:37:00;;;;;;;9.25;6.13;;;;;;;15.90;68.66;99120.13;5061422;28;20094;-93
2023/05/05 06:39:26;;;;;;;8.23;6.05;;;;;;;15.82;68.80;99108.84;5067524;28;20041;-94
2023/05/05 06:41:51;;;;;;;8.90;6.55;;;;;;;15.99;67.43;99102.75;5065373;28;20041;-93
2023/05/05 06:44:17;;;;;;;8.23;5.72;;;;;;;16.31;66.68;99112.06;5063212;28;20047;-93
2023/05/05 06:46:43;;;;;;;9.18;6.03;;;;;;;16.35;67.44;99102.03;5071219;28;20041;-94
2023/05/05 06:49:09;;;;;;;9.02;6.15;;;;;;;16.53;66.43;99122.69;5066090;28;20037;-95
2023/05/05 06:51:38;;;;;;;7.97;5.72;;;;;;;16.64;65.10;99106.09;5071626;28;20039;-95
2023/05/05 06:54:04;;;;;;;7.85;5.78;;;;;;;17.14;64.08;99128.84;5066427;28;20067;-91
2023/05/05 06:56:30;;;;;;;8.75;6.32;;;;;;;17.20;62.91;99107.06;5071768;28;20497;-95
2023/05/05 06:58:56;;;;;;;9.35;5.80;;;;;;;17.50;62.91;99126.19;5063514;28;20131;-93
2023/05/05 07:01:22;;;;;;;8.25;5.88;;;;;;;17.77;61.60;99123.06;5063887;28;20132;-94
2023/05/05 07:03:48;;;;;;;14.70;5.90;;;;;;;17.78;61.43;99131.06;5071243;28;20041;-94
2023/05/05 07:06:14;;;;;;;9.82;6.00;;;;;;;17.78;60.95;99093.41;5064857;28;20045;-94
2023/05/05 07:08:41;;;;;;;7.30;5.60;;;;;;;17.95;61.30;99094.34;5058682;28;20445;-94
2023/05/05 07:11:07;;;;;;;9.50;5.25;;;;;;;17.97;60.60;99105.91;5070629;28;20098;-92
2023/05/05 07:13:33;;;;;;;10.70;5.50;;;;;;;17.24;64.22;99112.22;5063829;28;20036;-92
2023/05/05 07:15:59;;;;;;;7.95;5.93;;;;;;;17.45;65.15;99129.09;5066429;28;20067;-91
2023/05/05 07:18:24;;;;;;;8.77;5.68;;;;;;;17.44;63.85;99116.59;5064108;28;20490;-92
2023/05/05 07:20:50;;;;;;;8.48;5.82;;;;;;;17.64;63.48;99115.59;5071361;28;20094;-94
2023/05/05 07:23:16;;;;;;;8.45;5.78;;;;;;;17.99;61.67;99122.84;5062626;28;20144;-91
2023/05/05 07:25:44;;;;;;;7.70;5.65;;;;;;;17.98;63.14;99110.38;5072157;28;20036;-95
2023/05/05 07:28:10;;;;;;;10.20;5.70;;;;;;;18.08;62.33;99127.75;5061721;28;20044;-92
2023/05/05 07:30:36;;;;;;;8.63;6.00;;;;;;;18.16;61.92;99108.53;5066399;28;20494;-95
2023/05/05 07:33:02;;;;;;;10.57;6.00;;;;;;;18.45;60.31;99115.91;5068651;28;20040;-94
2023/05/05 07:35:28;;;;;;;7.53;5.32;;;;;;;18.48;59.62;99094.19;5063048;28;20055;-93
2023/05/05 07:37:54;;;;;;;8.23;5.57;;;;;;;18.67;58.44;99095.88;5070872;28;20045;-93
2023/05/05 07:40:20;;;;;;;7.72;5.47;;;;;;;18.71;58.16;99100.13;5069238;28;20047;-94
2023/05/05 07:42:47;;;;;;;8.77;5.75;;;;;;;18.63;58.40;99097.88;5066333;28;20051;-94
2023/05/05 07:45:13;;;;;;;8.75;6.13;;;;;;;18.68;58.72;99106.56;5070141;28;20095;-95
2023/05/05 07:47:39;;;;;;;11.55;6.38;;;;;;;18.08;58.11;99086.50;5067673;28;20441;-94
2023/05/05 07:50:06;;;;;;;10.70;6.32;;;;;;;18.26;58.10;99121.41;5062945;28;20440;-96
2023/05/05 07:52:32;;;;;;;9.77;6.10;;;;;;;18.15;58.67;99087.91;5071694;28;20045;-94
2023/05/05 07:54:58;;;;;;;10.00;6.38;;;;;;;18.47;57.50;99070.91;5069840;28;20036;-93
2023/05/05 07:57:24;;;;;;;11.20;6.70;;;;;;;18.42;55.90;99070.28;5073966;28;20044;-93
2023/05/05 07:59:51;;;;;;;9.98;6.00;;;;;;;18.71;55.99;99092.06;5068015;28;20098;-93
2023/05/05 08:02:17;;;;;;;8.10;6.25;;;;;;;18.96;54.54;99074.56;5068166;28;20609;-95
2023/05/05 08:04:43;;;;;;;10.98;6.20;;;;;;;19.30;54.01;99070.81;5068064;28;20064;-93
2023/05/05 08:07:09;;;;;;;9.32;5.90;;;;;;;19.24;52.28;99066.63;5067466;28;20409;-94
2023/05/05 08:09:35;;;;;;;8.55;5.32;;;;;;;18.92;54.04;99071.16;5069811;28;20052;-95
2023/05/05 08:12:01;;;;;;;10.38;5.95;;;;;;;18.91;54.22;99080.22;5067635;28;20076;-94
2023/05/05 08:14:27;;;;;;;8.18;5.80;;;;;;;18.79;54.50;99059.34;5077426;28;20045;-94
2023/05/05 08:16:54;;;;;;;9.15;5.90;;;;;;;18.70;55.52;99063.41;5068678;28;20048;-94
2023/05/05 08:19:20;;;;;;;8.70;5.57;;;;;;;19.14;53.35;99069.94;5066174;28;20486;-95
2023/05/05 08:21:46;;;;;;;13.85;7.85;;;;;;;19.46;52.74;99079.72;5070779;28;20044;-93
2023/05/05 08:24:12;;;;;;;7.28;5.55;;;;;;;19.65;52.00;99065.19;5064829;28;20053;-94
2023/05/05 08:26:38;;;;;;;9.88;6.05;;;;;;;19.57;51.37;99097.13;5069817;28;20045;-93
2023/05/05 08:29:04;;;;;;;7.97;5.53;;;;;;;19.76;51.59;99092.41;5066051;28;20389;-91
2023/05/05 08:31:33;;;;;;;7.20;5.40;;;;;;;20.07;52.17;99095.97;5063876;28;20064;-92
2023/05/05 08:34:00;;;;;;;7.88;5.57;;;;;;;20.25;51.91;99096.66;5074174;28;20462;-93
2023/05/05 08:36:26;;;;;;;10.75;5.35;;;;;;;20.20;52.09;99085.28;5058818;28;20056;-94
2023/05/05 08:38:52;;;;;;;8.82;5.60;;;;;;;20.05;51.92;99062.78;5053322;28;20394;-95
2023/05/05 08:41:18;;;;;;;7.82;5.50;;;;;;;20.53;51.13;99079.59;5054479;28;20065;-94
2023/05/05 08:43:45;;;;;;;9.85;5.07;;;;;;;20.69;50.96;99084.94;5052930;28;20040;-94
2023/05/05 08:46:11;;;;;;;11.18;5.47;;;;;;;20.79;49.20;99096.03;5049733;28;20420;-93
2023/05/05 08:48:40;;;;;;;7.93;4.90;;;;;;;20.55;50.81;99066.84;5053794;28;20048;-93
2023/05/05 08:51:08;;;;;;;8.68;5.13;;;;;;;21.04;49.66;99082.66;5053467;28;20056;-93
2023/05/05 08:53:40;;;;;;;;;;;;;;;20.99;49.79;99097.44;5046688;28;20168;-92
2023/05/05 08:56:07;;;;;;;9.70;5.75;;;;;;;21.11;49.46;99083.13;5054128;28;19927;-92
2023/05/05 08:58:35;;;;;;;9.75;5.78;;;;;;;21.02;49.62;99068.38;5053967;28;20039;-93
2023/05/05 09:01:02;;;;;;;8.63;5.63;;;;;;;20.71;50.19;99067.66;5051095;28;20047;-95
2023/05/05 09:03:28;;;;;;;8.95;5.32;;;;;;;21.16;49.30;99080.13;5046392;28;20266;-93
2023/05/05 09:05:54;;;;;;;13.30;6.40;;;;;;;21.25;49.72;99057.88;5053754;28;20041;-94
2023/05/05 09:08:22;;;;;;;10.77;6.18;;;;;;;21.43;47.64;99056.69;5054094;28;20061;-93
2023/05/05 09:10:50;;;;;;;8.20;6.18;;;;;;;21.69;47.62;99054.94;5054217;28;20049;-94
2023/05/05 09:13:16;;;;;;;11.15;6.55;;;;;;;21.92;47.37;99077.72;5053227;28;20043;-93
2023/05/05 09:15:42;;;;;;;11.00;6.05;;;;;;;21.89;47.39;99052.69;5052742;28;20406;-93
2023/05/05 09:18:08;;;;;;;10.98;6.82;;;;;;;21.68;48.13;99071.25;5053927;28;20049;-94
2023/05/05 09:20:35;;;;;;;12.13;6.60;;;;;;;20.97;49.25;99045.31;5053185;28;20123;-94
2023/05/05 09:23:09;;;;;;;11.93;6.97;;;;;;;20.76;49.61;99043.03;5054813;28;20067;-96
2023/05/05 09:25:39;;;;;;;13.40;6.85;;;;;;;21.15;49.73;99071.16;5054313;28;20045;-93
2023/05/05 09:28:09;;;;;;;14.40;6.30;;;;;;;21.42;48.78;99065.75;5052665;28;20566;-94
2023/05/05 09:30:35;;;;;;;12.05;6.88;;;;;;;21.40;48.21;99043.31;5053559;28;20556;-94
2023/05/05 09:33:01;;;;;;;9.50;5.93;;;;;;;21.65;47.65;99045.28;5053059;28;20044;-94
2023/05/05 09:35:28;;;;;;;10.13;6.20;;;;;;;22.00;47.20;99063.63;5053144;28;20289;-93
2023/05/05 09:37:53;;;;;;;11.90;6.82;;;;;;;22.08;46.27;99061.28;5052212;28;20040;-96
2023/05/05 09:40:20;;;;;;;11.90;6.65;;;;;;;22.23;45.93;99037.69;5050190;28;20429;-95
2023/05/05 09:42:59;;;;;;;10.68;6.30;;;;;;;22.52;45.34;99045.59;5052870;28;20501;-95
2023/05/05 09:45:26;;;;;;;11.15;6.53;;;;;;;22.48;45.58;99058.47;5047082;28;20136;-94
2023/05/05 09:47:52;;;;;;;8.25;5.60;;;;;;;22.76;44.74;99067.34;5053209;28;20041;-94
2023/05/05 09:50:18;;;;;;;8.30;5.60;;;;;;;22.72;42.54;99039.56;5053528;28;20388;-94
2023/05/05 09:52:53;;;;;;;9.93;6.20;;;;;;;22.59;43.09;99049.56;5053517;28;20131;-93
2023/05/05 09:55:19;;;;;;;11.73;6.82;;;;;;;22.60;43.55;99047.72;5053078;28;20490;-95
2023/05/05 09:57:47;;;;;;;9.68;5.72;;;;;;;22.18;44.89;99028.97;5052371;28;20091;-93
2023/05/05 10:00:14;;;;;;;7.88;5.20;;;;;;;22.31;44.55;99019.03;5052293;28;20037;-93
2023/05/05 10:02:39;;;;;;;7.20;4.70;;;;;;;22.41;42.83;99012.97;5052936;28;20037;-92
2023/05/05 10:05:08;;;;;;;6.10;4.03;;;;;;;22.49;42.64;99007.88;5056720;28;20123;-93
2023/05/05 10:07:35;;;;;;;7.07;4.28;;;;;;;22.64;42.49;99012.19;5054372;28;20414;-92
2023/05/05 10:10:02;;;;;;;7.25;4.45;;;;;;;22.41;41.12;99005.69;5055117;28;20075;-95
2023/05/05 10:12:30;;;;;;;7.65;4.43;;;;;;;22.69;42.73;99015.41;5056693;28;20049;-92
2023/05/05 10:15:01;;;;;;;8.13;5.07;;;;;;;22.84;41.27;99013.41;5050389;28;20067;-93
2023/05/05 10:17:30;;;;;;;8.38;5.55;;;;;;;22.81;43.20;99004.63;5052426;28;20473;-92
2023/05/05 10:19:59;;;;;;;6.80;5.28;;;;;;;23.03;43.16;99025.63;5052687;28;20041;-93
2023/05/05 10:22:27;;;;;;;11.23;5.80;;;;;;;23.01;42.80;98995.94;5045623;28;20072;-93
2023/05/05 10:24:56;;;;;;;9.05;5.18;;;;;;;23.23;41.68;99005.16;5052604;28;20072;-91
2023/05/05 10:27:23;;;;;;;8.00;4.55;;;;;;;23.04;40.64;99003.81;5052708;28;20102;-92
2023/05/05 10:29:57;;;;;;;6.80;4.32;;;;;;;22.76;43.94;99003.13;5052868;28;20041;-95
2023/05/05 10:32:30;;;;;;;6.63;4.53;;;;;;;23.03;41.52;98999.41;5063965;28;20399;-91
2023/05/05 10:35:00;;;;;;;6.45;4.60;;;;;;;23.42;40.95;99005.50;5053894;28;20090;-93
2023/05/05 10:37:27;;;;;;;7.57;4.43;;;;;;;23.42;40.28;98985.63;5067649;28;20144;-95
2023/05/05 10:39:56;;;;;;;8.68;4.78;;;;;;;23.72;40.72;99007.69;5066233;28;20073;-94
2023/05/05 10:42:23;;;;;;;6.72;4.80;;;;;;;23.74;42.41;98996.72;5067374;28;20486;-95
2023/05/05 10:44:49;;;;;;;8.45;5.10;;;;;;;23.70;41.15;98977.09;5066949;28;20055;-94
2023/05/05 10:47:16;;;;;;;6.65;5.00;;;;;;;23.78;40.61;98957.50;5068693;28;20793;-94
2023/05/05 10:49:50;;;;;;;6.70;4.85;;;;;;;24.14;40.95;98986.34;5069203;28;20089;-94
2023/05/05 10:52:24;;;;;;;9.38;5.03;;;;;;;24.34;41.00;98987.44;5069985;28;20134;-95
2023/05/05 10:55:01;;;;;;;8.68;4.90;;;;;;;24.50;40.83;98978.09;5072104;28;20048;-93
2023/05/05 10:57:28;;;;;;;14.35;6.35;;;;;;;24.48;39.09;98961.88;5066756;28;20040;-95
2023/05/05 10:59:54;;;;;;;7.63;4.78;;;;;;;24.48;39.40;98940.13;5063053;28;20561;-94
2023/05/05 11:02:24;;;;;;;6.93;4.95;;;;;;;24.30;39.52;98941.63;5070520;28;20135;-93
2023/05/05 11:05:15;;;;;;;5.45;4.35;;;;;;;24.21;40.47;98956.81;5068030;28;20044;-91
2023/05/05 11:07:42;;;;;;;7.95;5.00;;;;;;;24.05;41.21;98973.50;5068076;28;20060;-93
2023/05/05 11:10:09;;;;;;;6.63;5.18;;;;;;;23.77;41.39;98969.38;5067339;28;20067;-93
2023/05/05 11:13:14;;;;;;;5.65;4.40;;;;;;;24.20;42.16;98974.09;5071925;28;20048;-94
2023/05/05 11:15:40;;;;;;;10.13;4.82;;;;;;;24.52;40.81;98959.78;5017203;28;20108;-93
2023/05/05 11:18:06;;;;;;;7.10;5.00;;;;;;;24.23;40.44;98949.41;5018538;28;20034;-94
2023/05/05 11:21:14;;;;;;;8.30;4.60;;;;;;;24.34;40.07;98960.25;5018668;28;20140;-93
2023/05/05 11:23:43;;;;;;;6.03;4.68;;;;;;;24.29;41.04;98942.59;5015432;28;20091;-92
2023/05/05 11:26:10;;;;;;;6.63;4.70;;;;;;;24.24;41.18;98947.53;5018049;28;20041;-92
2023/05/05 11:28:59;;;;;;;6.88;4.90;;;;;;;24.71;39.34;98932.81;5018839;28;20041;-94
2023/05/05 11:31:25;;;;;;;6.10;4.47;;;;;;;24.70;40.07;98930.22;5017963;28;20384;-95
2023/05/05 11:33:51;;;;;;;8.65;4.70;;;;;;;24.99;40.04;98928.66;5018377;28;20045;-93
2023/05/05 11:36:18;;;;;;;7.05;4.95;;;;;;;25.34;38.90;98932.13;5018310;28;20045;-93